sensor_id;sensor_type;location;lat;lon;timestamp;temperature;humidity
573;DHT22;271;51.114;13.780;2023-12-20T00:00:07;5.90;46.00
573;DHT22;271;51.114;13.780;2023-12-20T00:02:55;5.90;46.20
573;DHT22;271;51.114;13.780;2023-12-20T00:05:44;5.90;45.90
573;DHT22;271;51.114;13.780;2023-12-20T00:08:32;5.90;46.00
573;DHT22;271;51.114;13.780;2023-12-20T00:11:19;5.90;45.90
573;DHT22;271;51.114;13.780;2023-12-20T00:14:07;5.80;45.50
573;DHT22;271;51.114;13.780;2023-12-20T00:16:55;5.90;47.00
573;DHT22;271;51.114;13.780;2023-12-20T00:19:42;5.80;45.70
573;DHT22;271;51.114;13.780;2023-12-20T00:22:31;5.70;45.20
573;DHT22;271;51.114;13.780;2023-12-20T00:25:19;5.70;44.60
573;DHT22;271;51.114;13.780;2023-12-20T00:28:07;5.60;43.60
573;DHT22;271;51.114;13.780;2023-12-20T00:30:54;5.70;44.50
573;DHT22;271;51.114;13.780;2023-12-20T00:33:42;5.60;44.10
573;DHT22;271;51.114;13.780;2023-12-20T00:36:30;5.60;42.60
573;DHT22;271;51.114;13.780;2023-12-20T00:39:19;5.60;41.60
573;DHT22;271;51.114;13.780;2023-12-20T00:42:07;5.60;41.90
573;DHT22;271;51.114;13.780;2023-12-20T00:44:54;5.50;41.30
573;DHT22;271;51.114;13.780;2023-12-20T00:47:42;5.50;42.30
573;DHT22;271;51.114;13.780;2023-12-20T00:50:30;5.50;41.80
573;DHT22;271;51.114;13.780;2023-12-20T00:53:17;5.40;41.00
573;DHT22;271;51.114;13.780;2023-12-20T00:56:06;5.40;41.60
573;DHT22;271;51.114;13.780;2023-12-20T00:58:54;5.40;39.80
573;DHT22;271;51.114;13.780;2023-12-20T01:01:42;5.30;38.20
573;DHT22;271;51.114;13.780;2023-12-20T01:04:29;5.40;40.80
573;DHT22;271;51.114;13.780;2023-12-20T01:07:17;5.30;40.80
573;DHT22;271;51.114;13.780;2023-12-20T01:10:05;5.30;40.40
573;DHT22;271;51.114;13.780;2023-12-20T01:12:54;5.20;39.80
573;DHT22;271;51.114;13.780;2023-12-20T01:15:42;5.30;41.50
573;DHT22;271;51.114;13.780;2023-12-20T01:18:30;5.20;39.60
573;DHT22;271;51.114;13.780;2023-12-20T01:21:17;5.20;39.90
573;DHT22;271;51.114;13.780;2023-12-20T01:24:05;5.30;39.90
573;DHT22;271;51.114;13.780;2023-12-20T01:26:53;5.10;40.80
573;DHT22;271;51.114;13.780;2023-12-20T01:29:42;5.10;42.00
573;DHT22;271;51.114;13.780;2023-12-20T01:32:29;5.10;44.50
573;DHT22;271;51.114;13.780;2023-12-20T01:35:17;5.20;45.40
573;DHT22;271;51.114;13.780;2023-12-20T01:38:05;5.20;45.10
573;DHT22;271;51.114;13.780;2023-12-20T01:40:53;5.20;44.70
573;DHT22;271;51.114;13.780;2023-12-20T01:43:40;5.10;40.90
573;DHT22;271;51.114;13.780;2023-12-20T01:46:30;5.20;41.00
573;DHT22;271;51.114;13.780;2023-12-20T01:49:18;5.10;41.00
573;DHT22;271;51.114;13.780;2023-12-20T01:52:06;5.10;39.70
573;DHT22;271;51.114;13.780;2023-12-20T01:54:55;5.10;39.80
573;DHT22;271;51.114;13.780;2023-12-20T01:57:49;5.10;40.80
573;DHT22;271;51.114;13.780;2023-12-20T02:00:37;5.10;40.70
573;DHT22;271;51.114;13.780;2023-12-20T02:03:26;5.20;40.90
573;DHT22;271;51.114;13.780;2023-12-20T02:06:14;5.10;40.30
573;DHT22;271;51.114;13.780;2023-12-20T02:09:02;5.00;39.10
573;DHT22;271;51.114;13.780;2023-12-20T02:11:50;5.00;37.90
573;DHT22;271;51.114;13.780;2023-12-20T02:14:38;5.00;37.60
573;DHT22;271;51.114;13.780;2023-12-20T02:17:26;5.00;37.20
573;DHT22;271;51.114;13.780;2023-12-20T02:20:16;5.00;37.10
573;DHT22;271;51.114;13.780;2023-12-20T02:23:05;5.00;38.00
573;DHT22;271;51.114;13.780;2023-12-20T02:25:53;5.00;37.50
573;DHT22;271;51.114;13.780;2023-12-20T02:28:40;4.90;37.10
573;DHT22;271;51.114;13.780;2023-12-20T02:31:28;4.90;35.30
573;DHT22;271;51.114;13.780;2023-12-20T02:34:16;4.90;34.00
573;DHT22;271;51.114;13.780;2023-12-20T02:37:03;4.90;35.80
573;DHT22;271;51.114;13.780;2023-12-20T02:39:52;4.90;33.80
573;DHT22;271;51.114;13.780;2023-12-20T02:42:40;4.90;34.70
573;DHT22;271;51.114;13.780;2023-12-20T02:45:28;5.00;33.70
573;DHT22;271;51.114;13.780;2023-12-20T02:48:15;4.90;36.00
573;DHT22;271;51.114;13.780;2023-12-20T02:51:03;5.00;36.70
573;DHT22;271;51.114;13.780;2023-12-20T02:53:51;4.90;36.60
573;DHT22;271;51.114;13.780;2023-12-20T02:56:40;4.90;36.90
573;DHT22;271;51.114;13.780;2023-12-20T02:59:28;4.90;36.50
573;DHT22;271;51.114;13.780;2023-12-20T03:02:15;5.00;34.80
573;DHT22;271;51.114;13.780;2023-12-20T03:05:03;4.80;35.80
573;DHT22;271;51.114;13.780;2023-12-20T03:07:51;4.90;36.40
573;DHT22;271;51.114;13.780;2023-12-20T03:10:39;4.90;36.80
573;DHT22;271;51.114;13.780;2023-12-20T03:13:28;4.80;36.40
573;DHT22;271;51.114;13.780;2023-12-20T03:16:15;4.90;36.70
573;DHT22;271;51.114;13.780;2023-12-20T03:19:03;4.80;35.70
573;DHT22;271;51.114;13.780;2023-12-20T03:21:51;4.80;36.10
573;DHT22;271;51.114;13.780;2023-12-20T03:24:39;4.90;36.90
573;DHT22;271;51.114;13.780;2023-12-20T03:27:27;4.90;38.10
573;DHT22;271;51.114;13.780;2023-12-20T03:30:16;4.90;38.00
573;DHT22;271;51.114;13.780;2023-12-20T03:33:04;4.90;38.90
573;DHT22;271;51.114;13.780;2023-12-20T03:35:52;4.80;38.50
573;DHT22;271;51.114;13.780;2023-12-20T03:38:40;5.00;39.70
573;DHT22;271;51.114;13.780;2023-12-20T03:41:27;4.90;40.50
573;DHT22;271;51.114;13.780;2023-12-20T03:44:15;4.90;39.40
573;DHT22;271;51.114;13.780;2023-12-20T03:47:04;5.10;41.00
573;DHT22;271;51.114;13.780;2023-12-20T03:49:52;4.90;42.20
573;DHT22;271;51.114;13.780;2023-12-20T03:52:40;4.90;42.60
573;DHT22;271;51.114;13.780;2023-12-20T03:55:28;5.00;43.80
573;DHT22;271;51.114;13.780;2023-12-20T03:58:15;4.90;41.20
573;DHT22;271;51.114;13.780;2023-12-20T04:01:03;4.90;39.20
573;DHT22;271;51.114;13.780;2023-12-20T04:03:52;4.90;40.50
573;DHT22;271;51.114;13.780;2023-12-20T04:06:40;4.90;40.80
573;DHT22;271;51.114;13.780;2023-12-20T04:09:27;4.90;41.10
573;DHT22;271;51.114;13.780;2023-12-20T04:12:15;4.90;42.80
573;DHT22;271;51.114;13.780;2023-12-20T04:15:03;5.10;44.70
573;DHT22;271;51.114;13.780;2023-12-20T04:17:55;4.90;42.00
573;DHT22;271;51.114;13.780;2023-12-20T04:20:44;4.90;42.80
573;DHT22;271;51.114;13.780;2023-12-20T04:23:32;4.90;44.10
573;DHT22;271;51.114;13.780;2023-12-20T04:26:19;5.00;45.50
573;DHT22;271;51.114;13.780;2023-12-20T04:29:07;5.00;45.10
573;DHT22;271;51.114;13.780;2023-12-20T04:31:55;4.90;45.20
573;DHT22;271;51.114;13.780;2023-12-20T04:34:42;4.90;44.80
573;DHT22;271;51.114;13.780;2023-12-20T04:37:31;4.90;46.20
573;DHT22;271;51.114;13.780;2023-12-20T04:40:19;4.90;45.40
573;DHT22;271;51.114;13.780;2023-12-20T04:43:07;5.00;47.50
573;DHT22;271;51.114;13.780;2023-12-20T04:45:55;5.00;47.40
573;DHT22;271;51.114;13.780;2023-12-20T04:48:42;4.90;44.90
573;DHT22;271;51.114;13.780;2023-12-20T04:51:33;5.00;45.40
573;DHT22;271;51.114;13.780;2023-12-20T04:54:22;5.00;45.00
573;DHT22;271;51.114;13.780;2023-12-20T04:57:10;5.00;45.00
573;DHT22;271;51.114;13.780;2023-12-20T04:59:57;4.90;45.60
573;DHT22;271;51.114;13.780;2023-12-20T05:02:45;4.90;46.40
573;DHT22;271;51.114;13.780;2023-12-20T05:05:33;4.90;46.80
573;DHT22;271;51.114;13.780;2023-12-20T05:08:21;4.90;45.90
573;DHT22;271;51.114;13.780;2023-12-20T05:11:10;4.90;47.70
573;DHT22;271;51.114;13.780;2023-12-20T05:13:59;4.90;47.20
573;DHT22;271;51.114;13.780;2023-12-20T05:16:47;4.90;49.70
573;DHT22;271;51.114;13.780;2023-12-20T05:19:34;4.90;50.10
573;DHT22;271;51.114;13.780;2023-12-20T05:22:22;5.00;50.30
573;DHT22;271;51.114;13.780;2023-12-20T05:25:10;5.00;52.60
573;DHT22;271;51.114;13.780;2023-12-20T05:27:59;5.00;50.00
573;DHT22;271;51.114;13.780;2023-12-20T05:30:47;5.00;49.90
573;DHT22;271;51.114;13.780;2023-12-20T05:33:34;5.00;49.90
573;DHT22;271;51.114;13.780;2023-12-20T05:36:22;5.00;48.90
573;DHT22;271;51.114;13.780;2023-12-20T05:39:10;5.00;49.80
573;DHT22;271;51.114;13.780;2023-12-20T05:41:58;5.00;50.80
573;DHT22;271;51.114;13.780;2023-12-20T05:44:47;5.10;52.20
573;DHT22;271;51.114;13.780;2023-12-20T05:47:35;5.00;51.60
573;DHT22;271;51.114;13.780;2023-12-20T05:50:22;5.00;52.20
573;DHT22;271;51.114;13.780;2023-12-20T05:53:10;5.00;50.70
573;DHT22;271;51.114;13.780;2023-12-20T05:55:58;5.00;52.70
573;DHT22;271;51.114;13.780;2023-12-20T05:58:46;5.00;54.30
573;DHT22;271;51.114;13.780;2023-12-20T06:01:35;5.10;54.50
573;DHT22;271;51.114;13.780;2023-12-20T06:04:22;5.00;53.10
573;DHT22;271;51.114;13.780;2023-12-20T06:07:11;5.10;53.20
573;DHT22;271;51.114;13.780;2023-12-20T06:09:59;5.00;51.90
573;DHT22;271;51.114;13.780;2023-12-20T06:12:47;5.00;52.30
573;DHT22;271;51.114;13.780;2023-12-20T06:15:36;5.00;54.20
573;DHT22;271;51.114;13.780;2023-12-20T06:18:25;5.00;55.60
573;DHT22;271;51.114;13.780;2023-12-20T06:21:13;5.10;56.20
573;DHT22;271;51.114;13.780;2023-12-20T06:24:32;5.10;55.00
573;DHT22;271;51.114;13.780;2023-12-20T06:27:25;5.10;54.50
573;DHT22;271;51.114;13.780;2023-12-20T06:30:16;5.10;55.40
573;DHT22;271;51.114;13.780;2023-12-20T06:33:04;5.30;54.60
573;DHT22;271;51.114;13.780;2023-12-20T06:35:54;5.20;55.60
573;DHT22;271;51.114;13.780;2023-12-20T06:38:42;5.20;54.60
573;DHT22;271;51.114;13.780;2023-12-20T06:41:29;5.20;54.60
573;DHT22;271;51.114;13.780;2023-12-20T06:44:17;5.30;55.10
573;DHT22;271;51.114;13.780;2023-12-20T06:47:05;5.20;53.40
573;DHT22;271;51.114;13.780;2023-12-20T06:49:53;5.10;53.70
573;DHT22;271;51.114;13.780;2023-12-20T06:52:42;5.20;54.30
573;DHT22;271;51.114;13.780;2023-12-20T06:55:29;5.20;54.00
573;DHT22;271;51.114;13.780;2023-12-20T06:58:17;5.10;51.90
573;DHT22;271;51.114;13.780;2023-12-20T07:01:05;5.10;51.70
573;DHT22;271;51.114;13.780;2023-12-20T07:03:52;5.10;50.80
573;DHT22;271;51.114;13.780;2023-12-20T07:06:40;5.10;51.70
573;DHT22;271;51.114;13.780;2023-12-20T07:09:29;5.10;53.70
573;DHT22;271;51.114;13.780;2023-12-20T07:12:17;5.20;54.00
573;DHT22;271;51.114;13.780;2023-12-20T07:15:28;5.10;54.30
573;DHT22;271;51.114;13.780;2023-12-20T07:18:48;5.30;55.50
573;DHT22;271;51.114;13.780;2023-12-20T07:21:36;5.10;53.60
573;DHT22;271;51.114;13.780;2023-12-20T07:24:24;5.10;53.10
573;DHT22;271;51.114;13.780;2023-12-20T07:27:13;5.10;53.10
573;DHT22;271;51.114;13.780;2023-12-20T07:30:01;5.10;54.00
573;DHT22;271;51.114;13.780;2023-12-20T07:32:48;5.10;56.40
573;DHT22;271;51.114;13.780;2023-12-20T07:35:36;5.20;57.00
573;DHT22;271;51.114;13.780;2023-12-20T07:38:24;5.20;56.20
573;DHT22;271;51.114;13.780;2023-12-20T07:41:12;5.20;57.60
573;DHT22;271;51.114;13.780;2023-12-20T07:44:01;5.20;56.30
573;DHT22;271;51.114;13.780;2023-12-20T07:46:48;5.20;55.00
573;DHT22;271;51.114;13.780;2023-12-20T07:49:36;5.20;56.60
573;DHT22;271;51.114;13.780;2023-12-20T07:52:24;5.20;56.20
573;DHT22;271;51.114;13.780;2023-12-20T07:55:12;5.30;54.60
573;DHT22;271;51.114;13.780;2023-12-20T07:58:00;5.20;54.00
573;DHT22;271;51.114;13.780;2023-12-20T08:04:14;5.10;52.60
573;DHT22;271;51.114;13.780;2023-12-20T08:07:03;5.10;53.40
573;DHT22;271;51.114;13.780;2023-12-20T08:09:50;5.10;52.40
573;DHT22;271;51.114;13.780;2023-12-20T08:12:41;5.10;51.60
573;DHT22;271;51.114;13.780;2023-12-20T08:15:28;5.20;54.30
573;DHT22;271;51.114;13.780;2023-12-20T08:18:30;5.20;53.80
573;DHT22;271;51.114;13.780;2023-12-20T08:21:25;5.20;51.40
573;DHT22;271;51.114;13.780;2023-12-20T08:24:13;5.20;50.10
573;DHT22;271;51.114;13.780;2023-12-20T08:27:00;5.30;49.80
573;DHT22;271;51.114;13.780;2023-12-20T08:29:48;5.30;49.30
573;DHT22;271;51.114;13.780;2023-12-20T08:32:40;5.30;47.80
573;DHT22;271;51.114;13.780;2023-12-20T08:35:27;5.40;45.50
573;DHT22;271;51.114;13.780;2023-12-20T08:38:16;5.40;42.60
573;DHT22;271;51.114;13.780;2023-12-20T08:41:04;5.50;42.90
573;DHT22;271;51.114;13.780;2023-12-20T08:43:55;5.60;40.00
573;DHT22;271;51.114;13.780;2023-12-20T08:46:43;5.60;31.10
573;DHT22;271;51.114;13.780;2023-12-20T08:49:31;5.70;31.60
573;DHT22;271;51.114;13.780;2023-12-20T08:52:18;5.80;28.60
573;DHT22;271;51.114;13.780;2023-12-20T08:55:10;6.00;20.70
573;DHT22;271;51.114;13.780;2023-12-20T08:57:59;6.20;15.30
573;DHT22;271;51.114;13.780;2023-12-20T09:00:47;6.30;6.40
573;DHT22;271;51.114;13.780;2023-12-20T09:03:35;6.20;1.80
573;DHT22;271;51.114;13.780;2023-12-20T09:06:25;6.00;1.00
573;DHT22;271;51.114;13.780;2023-12-20T09:09:12;5.80;1.00
573;DHT22;271;51.114;13.780;2023-12-20T09:12:05;5.70;1.00
573;DHT22;271;51.114;13.780;2023-12-20T09:14:53;5.70;1.00
573;DHT22;271;51.114;13.780;2023-12-20T09:17:40;5.70;1.00
573;DHT22;271;51.114;13.780;2023-12-20T09:20:30;5.80;1.00
573;DHT22;271;51.114;13.780;2023-12-20T09:23:19;5.90;1.00
573;DHT22;271;51.114;13.780;2023-12-20T09:26:06;6.10;1.00
573;DHT22;271;51.114;13.780;2023-12-20T09:28:58;6.10;1.00
573;DHT22;271;51.114;13.780;2023-12-20T09:31:46;6.10;1.00
573;DHT22;271;51.114;13.780;2023-12-20T09:34:35;6.30;1.00
573;DHT22;271;51.114;13.780;2023-12-20T09:37:27;6.50;1.00
573;DHT22;271;51.114;13.780;2023-12-20T09:40:18;6.70;1.00
573;DHT22;271;51.114;13.780;2023-12-20T09:43:10;6.60;1.00
573;DHT22;271;51.114;13.780;2023-12-20T09:46:00;6.60;1.00
573;DHT22;271;51.114;13.780;2023-12-20T09:48:50;6.70;1.00
573;DHT22;271;51.114;13.780;2023-12-20T09:51:38;6.70;1.00
573;DHT22;271;51.114;13.780;2023-12-20T09:54:28;6.60;1.00
573;DHT22;271;51.114;13.780;2023-12-20T09:57:17;6.50;1.00
573;DHT22;271;51.114;13.780;2023-12-20T10:00:05;6.40;1.00
573;DHT22;271;51.114;13.780;2023-12-20T10:02:57;6.40;1.00
573;DHT22;271;51.114;13.780;2023-12-20T10:05:45;6.40;1.00
573;DHT22;271;51.114;13.780;2023-12-20T10:08:35;6.30;1.00
573;DHT22;271;51.114;13.780;2023-12-20T10:11:23;6.30;1.00
573;DHT22;271;51.114;13.780;2023-12-20T10:14:10;6.20;1.00
573;DHT22;271;51.114;13.780;2023-12-20T10:17:02;6.20;1.00
573;DHT22;271;51.114;13.780;2023-12-20T10:19:52;6.20;1.00
573;DHT22;271;51.114;13.780;2023-12-20T10:22:39;6.10;1.00
573;DHT22;271;51.114;13.780;2023-12-20T10:25:27;6.10;1.00
573;DHT22;271;51.114;13.780;2023-12-20T10:28:16;6.10;1.00
573;DHT22;271;51.114;13.780;2023-12-20T10:31:05;6.20;1.00
573;DHT22;271;51.114;13.780;2023-12-20T10:33:53;6.20;1.00
573;DHT22;271;51.114;13.780;2023-12-20T10:36:42;6.20;1.00
573;DHT22;271;51.114;13.780;2023-12-20T10:39:30;6.30;1.00
573;DHT22;271;51.114;13.780;2023-12-20T10:42:20;6.30;1.00
573;DHT22;271;51.114;13.780;2023-12-20T10:45:09;6.40;1.00
573;DHT22;271;51.114;13.780;2023-12-20T10:47:57;6.40;1.00
573;DHT22;271;51.114;13.780;2023-12-20T10:50:47;6.40;1.00
573;DHT22;271;51.114;13.780;2023-12-20T10:53:36;6.30;1.00
573;DHT22;271;51.114;13.780;2023-12-20T10:56:29;6.40;1.00
573;DHT22;271;51.114;13.780;2023-12-20T10:59:20;6.40;1.00
573;DHT22;271;51.114;13.780;2023-12-20T11:02:08;6.40;1.00
573;DHT22;271;51.114;13.780;2023-12-20T11:05:03;6.40;1.00
573;DHT22;271;51.114;13.780;2023-12-20T11:07:58;6.40;1.00
573;DHT22;271;51.114;13.780;2023-12-20T11:10:59;6.40;1.00
573;DHT22;271;51.114;13.780;2023-12-20T11:13:55;6.40;1.00
573;DHT22;271;51.114;13.780;2023-12-20T11:16:45;6.40;1.00
573;DHT22;271;51.114;13.780;2023-12-20T11:19:36;6.40;1.00
573;DHT22;271;51.114;13.780;2023-12-20T11:22:25;6.50;1.00
573;DHT22;271;51.114;13.780;2023-12-20T11:25:12;6.50;1.00
573;DHT22;271;51.114;13.780;2023-12-20T11:28:09;6.50;1.00
573;DHT22;271;51.114;13.780;2023-12-20T11:31:00;6.50;1.00
573;DHT22;271;51.114;13.780;2023-12-20T11:33:47;6.50;1.00
573;DHT22;271;51.114;13.780;2023-12-20T11:36:45;6.50;1.00
573;DHT22;271;51.114;13.780;2023-12-20T11:39:37;6.50;1.00
573;DHT22;271;51.114;13.780;2023-12-20T11:42:24;6.40;1.00
573;DHT22;271;51.114;13.780;2023-12-20T11:45:18;6.40;1.00
573;DHT22;271;51.114;13.780;2023-12-20T11:48:08;6.40;1.00
573;DHT22;271;51.114;13.780;2023-12-20T11:50:56;6.40;1.00
573;DHT22;271;51.114;13.780;2023-12-20T11:53:43;6.40;1.00
573;DHT22;271;51.114;13.780;2023-12-20T11:56:31;6.50;1.00
573;DHT22;271;51.114;13.780;2023-12-20T11:59:19;6.60;1.00
573;DHT22;271;51.114;13.780;2023-12-20T12:02:11;6.70;1.00
573;DHT22;271;51.114;13.780;2023-12-20T12:05:00;6.80;1.00
573;DHT22;271;51.114;13.780;2023-12-20T12:07:48;6.80;1.00
573;DHT22;271;51.114;13.780;2023-12-20T12:10:35;6.90;1.00
573;DHT22;271;51.114;13.780;2023-12-20T12:13:26;7.00;1.00
573;DHT22;271;51.114;13.780;2023-12-20T12:16:17;7.00;1.00
573;DHT22;271;51.114;13.780;2023-12-20T12:19:06;7.00;1.00
573;DHT22;271;51.114;13.780;2023-12-20T12:22:04;7.20;1.00
573;DHT22;271;51.114;13.780;2023-12-20T12:24:53;7.20;1.00
573;DHT22;271;51.114;13.780;2023-12-20T12:27:41;7.20;1.00
573;DHT22;271;51.114;13.780;2023-12-20T12:30:29;7.20;1.00
573;DHT22;271;51.114;13.780;2023-12-20T12:33:17;7.30;1.00
573;DHT22;271;51.114;13.780;2023-12-20T12:36:07;7.40;1.00
573;DHT22;271;51.114;13.780;2023-12-20T12:38:56;7.40;1.00
573;DHT22;271;51.114;13.780;2023-12-20T12:41:44;7.50;1.00
573;DHT22;271;51.114;13.780;2023-12-20T12:44:32;7.50;1.00
573;DHT22;271;51.114;13.780;2023-12-20T12:47:19;7.50;1.00
573;DHT22;271;51.114;13.780;2023-12-20T12:50:08;7.40;1.00
573;DHT22;271;51.114;13.780;2023-12-20T12:52:57;7.40;1.00
573;DHT22;271;51.114;13.780;2023-12-20T12:55:45;7.30;1.00
573;DHT22;271;51.114;13.780;2023-12-20T12:58:33;7.40;1.00
573;DHT22;271;51.114;13.780;2023-12-20T13:01:20;7.50;1.00
573;DHT22;271;51.114;13.780;2023-12-20T13:04:08;7.40;1.00
573;DHT22;271;51.114;13.780;2023-12-20T13:06:57;7.50;1.00
573;DHT22;271;51.114;13.780;2023-12-20T13:09:46;7.50;1.00
573;DHT22;271;51.114;13.780;2023-12-20T13:12:34;7.60;1.00
573;DHT22;271;51.114;13.780;2023-12-20T13:15:23;7.60;1.00
573;DHT22;271;51.114;13.780;2023-12-20T13:18:11;7.70;1.00
573;DHT22;271;51.114;13.780;2023-12-20T13:21:02;7.70;1.00
573;DHT22;271;51.114;13.780;2023-12-20T13:23:50;7.80;1.00
573;DHT22;271;51.114;13.780;2023-12-20T13:26:40;7.80;1.00
573;DHT22;271;51.114;13.780;2023-12-20T13:29:28;7.90;1.00
573;DHT22;271;51.114;13.780;2023-12-20T13:32:15;7.80;1.00
573;DHT22;271;51.114;13.780;2023-12-20T13:35:05;7.90;1.00
573;DHT22;271;51.114;13.780;2023-12-20T13:37:53;8.00;1.00
573;DHT22;271;51.114;13.780;2023-12-20T13:40:42;8.00;1.00
573;DHT22;271;51.114;13.780;2023-12-20T13:43:35;7.90;1.00
573;DHT22;271;51.114;13.780;2023-12-20T13:46:22;7.80;1.00
573;DHT22;271;51.114;13.780;2023-12-20T13:49:10;7.70;1.00
573;DHT22;271;51.114;13.780;2023-12-20T13:51:59;7.70;1.00
573;DHT22;271;51.114;13.780;2023-12-20T13:54:47;7.60;1.00
573;DHT22;271;51.114;13.780;2023-12-20T13:57:35;7.60;1.00
573;DHT22;271;51.114;13.780;2023-12-20T14:00:28;7.50;1.00
573;DHT22;271;51.114;13.780;2023-12-20T14:03:15;7.40;1.00
573;DHT22;271;51.114;13.780;2023-12-20T14:06:03;7.40;1.00
573;DHT22;271;51.114;13.780;2023-12-20T14:08:51;7.40;1.00
573;DHT22;271;51.114;13.780;2023-12-20T14:11:42;7.30;1.00
573;DHT22;271;51.114;13.780;2023-12-20T14:14:29;7.20;1.00
573;DHT22;271;51.114;13.780;2023-12-20T14:17:21;7.10;1.00
573;DHT22;271;51.114;13.780;2023-12-20T14:20:09;7.00;1.00
573;DHT22;271;51.114;13.780;2023-12-20T14:22:59;7.00;1.00
573;DHT22;271;51.114;13.780;2023-12-20T14:25:46;7.00;1.00
573;DHT22;271;51.114;13.780;2023-12-20T14:28:35;7.00;1.00
573;DHT22;271;51.114;13.780;2023-12-20T14:31:24;6.90;1.00
573;DHT22;271;51.114;13.780;2023-12-20T14:34:16;6.90;1.00
573;DHT22;271;51.114;13.780;2023-12-20T14:37:04;6.80;1.00
573;DHT22;271;51.114;13.780;2023-12-20T14:39:52;6.80;1.00
573;DHT22;271;51.114;13.780;2023-12-20T14:42:40;6.80;1.00
573;DHT22;271;51.114;13.780;2023-12-20T14:45:28;6.80;1.00
573;DHT22;271;51.114;13.780;2023-12-20T14:48:16;6.70;1.00
573;DHT22;271;51.114;13.780;2023-12-20T14:51:05;6.80;1.00
573;DHT22;271;51.114;13.780;2023-12-20T14:53:53;6.80;1.00
573;DHT22;271;51.114;13.780;2023-12-20T14:56:41;6.80;1.00
573;DHT22;271;51.114;13.780;2023-12-20T14:59:29;6.80;1.00
573;DHT22;271;51.114;13.780;2023-12-20T15:02:16;6.80;1.00
573;DHT22;271;51.114;13.780;2023-12-20T15:05:05;6.90;1.00
573;DHT22;271;51.114;13.780;2023-12-20T15:07:54;6.80;1.00
573;DHT22;271;51.114;13.780;2023-12-20T15:10:42;6.80;1.00
573;DHT22;271;51.114;13.780;2023-12-20T15:13:30;6.80;1.00
573;DHT22;271;51.114;13.780;2023-12-20T15:16:19;6.80;1.00
573;DHT22;271;51.114;13.780;2023-12-20T15:19:08;6.80;1.00
573;DHT22;271;51.114;13.780;2023-12-20T15:21:57;6.80;1.00
573;DHT22;271;51.114;13.780;2023-12-20T15:24:46;6.80;1.00
573;DHT22;271;51.114;13.780;2023-12-20T15:27:35;6.80;1.00
573;DHT22;271;51.114;13.780;2023-12-20T15:30:24;6.90;1.00
573;DHT22;271;51.114;13.780;2023-12-20T15:33:12;6.80;1.00
573;DHT22;271;51.114;13.780;2023-12-20T15:36:00;6.80;1.00
573;DHT22;271;51.114;13.780;2023-12-20T15:38:49;6.80;1.00
573;DHT22;271;51.114;13.780;2023-12-20T15:41:38;6.70;1.00
573;DHT22;271;51.114;13.780;2023-12-20T15:44:26;6.80;1.00
573;DHT22;271;51.114;13.780;2023-12-20T15:47:15;6.70;1.00
573;DHT22;271;51.114;13.780;2023-12-20T15:50:03;6.70;1.00
573;DHT22;271;51.114;13.780;2023-12-20T15:52:53;6.80;1.00
573;DHT22;271;51.114;13.780;2023-12-20T15:55:41;6.70;1.00
573;DHT22;271;51.114;13.780;2023-12-20T15:58:30;6.70;1.00
573;DHT22;271;51.114;13.780;2023-12-20T16:01:18;6.70;1.00
573;DHT22;271;51.114;13.780;2023-12-20T16:04:06;6.70;1.00
573;DHT22;271;51.114;13.780;2023-12-20T16:06:54;6.70;1.00
573;DHT22;271;51.114;13.780;2023-12-20T16:09:41;6.60;1.00
573;DHT22;271;51.114;13.780;2023-12-20T16:12:29;6.80;1.00
573;DHT22;271;51.114;13.780;2023-12-20T16:15:18;6.60;1.00
573;DHT22;271;51.114;13.780;2023-12-20T16:18:06;6.60;1.00
573;DHT22;271;51.114;13.780;2023-12-20T16:20:57;6.60;1.00
573;DHT22;271;51.114;13.780;2023-12-20T16:23:47;6.60;1.00
573;DHT22;271;51.114;13.780;2023-12-20T16:26:35;6.60;1.00
573;DHT22;271;51.114;13.780;2023-12-20T16:29:22;6.60;1.00
573;DHT22;271;51.114;13.780;2023-12-20T16:32:11;6.60;1.00
573;DHT22;271;51.114;13.780;2023-12-20T16:35:01;6.60;1.00
573;DHT22;271;51.114;13.780;2023-12-20T16:37:51;6.60;1.00
573;DHT22;271;51.114;13.780;2023-12-20T16:40:39;6.60;1.00
573;DHT22;271;51.114;13.780;2023-12-20T16:43:26;6.60;1.00
573;DHT22;271;51.114;13.780;2023-12-20T16:46:14;6.60;1.00
573;DHT22;271;51.114;13.780;2023-12-20T16:49:03;6.70;1.00
573;DHT22;271;51.114;13.780;2023-12-20T16:51:51;6.70;1.00
573;DHT22;271;51.114;13.780;2023-12-20T16:54:39;6.70;1.00
573;DHT22;271;51.114;13.780;2023-12-20T16:57:27;6.60;1.00
573;DHT22;271;51.114;13.780;2023-12-20T17:00:16;6.60;1.00
573;DHT22;271;51.114;13.780;2023-12-20T17:03:04;6.60;1.00
573;DHT22;271;51.114;13.780;2023-12-20T17:05:53;6.60;1.00
573;DHT22;271;51.114;13.780;2023-12-20T17:08:40;6.50;1.00
573;DHT22;271;51.114;13.780;2023-12-20T17:11:30;6.50;1.00
573;DHT22;271;51.114;13.780;2023-12-20T17:14:17;6.40;1.00
573;DHT22;271;51.114;13.780;2023-12-20T17:17:05;6.30;1.00
573;DHT22;271;51.114;13.780;2023-12-20T17:19:54;6.20;1.00
573;DHT22;271;51.114;13.780;2023-12-20T17:22:43;6.10;1.00
573;DHT22;271;51.114;13.780;2023-12-20T17:25:31;6.10;1.00
573;DHT22;271;51.114;13.780;2023-12-20T17:28:21;6.00;1.00
573;DHT22;271;51.114;13.780;2023-12-20T17:31:08;6.00;1.00
573;DHT22;271;51.114;13.780;2023-12-20T17:33:56;6.00;1.00
573;DHT22;271;51.114;13.780;2023-12-20T17:36:44;5.90;1.00
573;DHT22;271;51.114;13.780;2023-12-20T17:39:34;5.80;1.00
573;DHT22;271;51.114;13.780;2023-12-20T17:42:22;5.70;3.00
573;DHT22;271;51.114;13.780;2023-12-20T17:45:10;5.60;3.80
573;DHT22;271;51.114;13.780;2023-12-20T17:47:57;5.60;6.80
573;DHT22;271;51.114;13.780;2023-12-20T17:50:45;5.60;9.40
573;DHT22;271;51.114;13.780;2023-12-20T17:53:33;5.50;9.60
573;DHT22;271;51.114;13.780;2023-12-20T17:56:22;5.50;11.50
573;DHT22;271;51.114;13.780;2023-12-20T17:59:10;5.50;10.00
573;DHT22;271;51.114;13.780;2023-12-20T18:01:57;5.40;9.90
573;DHT22;271;51.114;13.780;2023-12-20T18:04:45;5.40;9.00
573;DHT22;271;51.114;13.780;2023-12-20T18:07:33;5.30;8.60
573;DHT22;271;51.114;13.780;2023-12-20T18:10:21;5.40;9.90
573;DHT22;271;51.114;13.780;2023-12-20T18:13:10;5.30;9.90
573;DHT22;271;51.114;13.780;2023-12-20T18:15:58;5.40;8.90
573;DHT22;271;51.114;13.780;2023-12-20T18:18:46;5.20;10.30
573;DHT22;271;51.114;13.780;2023-12-20T18:21:33;5.20;13.60
573;DHT22;271;51.114;13.780;2023-12-20T18:24:21;5.10;14.50
573;DHT22;271;51.114;13.780;2023-12-20T18:27:09;5.10;17.00
573;DHT22;271;51.114;13.780;2023-12-20T18:29:59;5.10;18.20
573;DHT22;271;51.114;13.780;2023-12-20T18:32:52;5.10;20.00
573;DHT22;271;51.114;13.780;2023-12-20T18:35:39;5.10;21.80
573;DHT22;271;51.114;13.780;2023-12-20T18:38:29;5.10;25.90
573;DHT22;271;51.114;13.780;2023-12-20T18:41:18;5.10;27.30
573;DHT22;271;51.114;13.780;2023-12-20T18:44:06;5.30;28.40
573;DHT22;271;51.114;13.780;2023-12-20T18:46:55;5.10;32.80
573;DHT22;271;51.114;13.780;2023-12-20T18:49:43;5.20;34.40
573;DHT22;271;51.114;13.780;2023-12-20T18:52:30;5.10;37.90
573;DHT22;271;51.114;13.780;2023-12-20T18:55:18;5.10;37.10
573;DHT22;271;51.114;13.780;2023-12-20T18:58:06;5.10;37.40
573;DHT22;271;51.114;13.780;2023-12-20T19:00:54;5.20;40.10
573;DHT22;271;51.114;13.780;2023-12-20T19:03:44;5.20;40.70
573;DHT22;271;51.114;13.780;2023-12-20T19:06:32;5.20;41.50
573;DHT22;271;51.114;13.780;2023-12-20T19:09:19;5.20;39.90